createdAt,value
2023-05-21T00:00:18.970Z,27.98
2023-05-21T00:02:45.575Z,29.08
2023-05-21T00:05:14.772Z,28.50
2023-05-21T00:07:41.573Z,29.80
2023-05-21T00:10:08.373Z,30.67
2023-05-21T00:12:34.904Z,29.23
2023-05-21T00:15:01.676Z,29.77
2023-05-21T00:17:28.649Z,29.40
2023-05-21T00:19:56.813Z,31.77
2023-05-21T00:22:23.923Z,30.70
2023-05-21T00:24:50.601Z,29.98
2023-05-21T00:27:17.131Z,29.73
2023-05-21T00:29:44.500Z,30.95
2023-05-21T00:32:11.243Z,30.50
2023-05-21T00:34:38.306Z,30.33
2023-05-21T00:37:04.941Z,29.77
2023-05-21T00:39:31.472Z,32.28
2023-05-21T00:41:58.042Z,31.08
2023-05-21T00:44:25.400Z,31.38
2023-05-21T00:46:53.712Z,31.65
2023-05-21T00:49:24.369Z,31.20
2023-05-21T00:51:51.918Z,32.88
2023-05-21T00:54:18.869Z,31.33
2023-05-21T00:56:45.958Z,31.67
2023-05-21T00:59:12.607Z,31.85
2023-05-21T01:01:39.184Z,32.15
2023-05-21T01:04:05.783Z,31.42
2023-05-21T01:06:35.100Z,32.88
2023-05-21T01:09:04.367Z,32.92
2023-05-21T01:11:40.769Z,33.05
2023-05-21T01:14:09.371Z,33.13
2023-05-21T01:16:39.797Z,33.17
2023-05-21T01:19:07.913Z,31.83
2023-05-21T01:21:37.356Z,33.83
2023-05-21T01:24:05.549Z,33.58
2023-05-21T01:26:33.736Z,33.50
2023-05-21T01:29:00.325Z,34.05
2023-05-21T01:31:31.663Z,33.28
2023-05-21T01:34:01.161Z,32.97
2023-05-21T01:36:34.514Z,34.53
2023-05-21T01:39:19.695Z,34.72
2023-05-21T01:41:46.692Z,35.60
2023-05-21T01:44:14.198Z,34.83
2023-05-21T01:46:40.785Z,35.55
2023-05-21T01:49:08.189Z,35.88
2023-05-21T01:51:35.533Z,36.20
2023-05-21T01:54:02.416Z,35.83
2023-05-21T01:56:29.142Z,35.75
2023-05-21T01:58:58.206Z,36.15
2023-05-21T02:01:24.958Z,35.13
2023-05-21T02:03:51.574Z,35.85
2023-05-21T02:06:18.147Z,35.85
2023-05-21T02:08:45.662Z,35.50
2023-05-21T02:11:12.200Z,35.55
2023-05-21T02:13:42.512Z,35.67
2023-05-21T02:16:12.067Z,36.10
2023-05-21T02:18:39.466Z,35.65
2023-05-21T02:21:06.095Z,34.20
2023-05-21T02:23:32.664Z,35.90
2023-05-21T02:25:59.144Z,35.33
2023-05-21T02:28:25.788Z,36.70
2023-05-21T02:30:52.496Z,36.15
2023-05-21T02:33:20.154Z,36.88
2023-05-21T02:35:46.681Z,36.53
2023-05-21T02:38:13.739Z,36.05
2023-05-21T02:40:40.550Z,35.72
2023-05-21T02:43:07.844Z,36.35
2023-05-21T02:45:34.528Z,37.80
2023-05-21T02:48:01.325Z,37.97
2023-05-21T02:50:29.750Z,36.13
2023-05-21T02:52:59.799Z,36.08
2023-05-21T02:55:26.832Z,35.78
2023-05-21T02:57:53.320Z,36.15
2023-05-21T03:00:19.852Z,36.20
2023-05-21T03:02:46.778Z,36.65
2023-05-21T03:05:13.470Z,36.20
2023-05-21T03:07:39.985Z,37.65
2023-05-21T03:10:07.056Z,37.10
2023-05-21T03:12:33.600Z,35.58
2023-05-21T03:15:00.160Z,36.25
2023-05-21T03:17:27.848Z,37.75
2023-05-21T03:19:54.760Z,38.60
2023-05-21T03:22:21.550Z,39.20
2023-05-21T03:24:49.085Z,38.28
2023-05-21T03:27:15.723Z,36.90
2023-05-21T03:29:43.788Z,37.25
2023-05-21T03:32:10.585Z,38.65
2023-05-21T03:34:37.327Z,37.70
2023-05-21T03:37:03.887Z,38.05
2023-05-21T03:39:31.894Z,36.22
2023-05-21T03:41:59.291Z,38.92
2023-05-21T03:44:35.854Z,37.00
2023-05-21T03:47:21.069Z,37.03
2023-05-21T03:49:48.649Z,37.92
2023-05-21T03:52:15.361Z,38.75
2023-05-21T03:54:41.868Z,36.35
2023-05-21T03:57:09.591Z,36.55
2023-05-21T03:59:36.223Z,36.60
2023-05-21T04:02:03.090Z,36.80
2023-05-21T04:04:29.796Z,36.00
2023-05-21T04:06:56.515Z,35.78
2023-05-21T04:09:23.144Z,35.47
2023-05-21T04:11:51.787Z,33.85
2023-05-21T04:14:32.221Z,35.00
2023-05-21T04:17:19.139Z,34.88
2023-05-21T04:19:49.640Z,35.47
2023-05-21T04:22:16.254Z,35.75
2023-05-21T04:24:43.591Z,35.17
2023-05-21T04:27:16.577Z,35.97
2023-05-21T04:29:43.881Z,34.15
2023-05-21T04:32:11.643Z,33.92
2023-05-21T04:34:39.600Z,35.55
2023-05-21T04:37:06.860Z,34.08
2023-05-21T04:39:34.716Z,33.65
2023-05-21T04:42:02.102Z,33.78
2023-05-21T04:44:29.564Z,33.03
2023-05-21T04:46:58.726Z,33.38
2023-05-21T04:49:25.616Z,33.95
2023-05-21T04:51:52.172Z,32.58
2023-05-21T04:54:18.722Z,32.55
2023-05-21T04:56:45.233Z,29.85
2023-05-21T04:59:11.841Z,30.80
2023-05-21T05:01:38.642Z,30.98
2023-05-21T05:04:05.705Z,29.90
2023-05-21T05:06:32.698Z,27.98
2023-05-21T05:08:59.349Z,27.92
2023-05-21T05:11:26.566Z,27.88
2023-05-21T05:13:53.167Z,28.38
2023-05-21T05:16:25.003Z,29.60
2023-05-21T05:18:54.905Z,27.38
2023-05-21T05:21:22.518Z,28.50
2023-05-21T05:23:49.180Z,29.02
2023-05-21T05:26:16.121Z,28.42
2023-05-21T05:28:42.640Z,27.45
2023-05-21T05:31:09.193Z,27.00
2023-05-21T05:33:35.809Z,28.48
2023-05-21T05:36:02.291Z,27.45
2023-05-21T05:38:28.840Z,27.75
2023-05-21T05:40:55.573Z,27.23
2023-05-21T05:43:22.405Z,27.75
2023-05-21T05:45:48.983Z,27.63
2023-05-21T05:48:16.787Z,27.05
2023-05-21T05:50:44.943Z,26.80
2023-05-21T05:53:13.278Z,27.23
2023-05-21T05:55:40.197Z,26.90
2023-05-21T05:58:07.104Z,26.65
2023-05-21T06:00:46.106Z,27.50
2023-05-21T06:03:13.268Z,26.65
2023-05-21T06:05:41.666Z,26.63
2023-05-21T06:08:08.212Z,26.98
2023-05-21T06:10:34.738Z,26.38
2023-05-21T06:13:01.276Z,25.05
2023-05-21T06:15:27.764Z,25.45
2023-05-21T06:17:54.376Z,25.77
2023-05-21T06:20:21.091Z,25.38
2023-05-21T06:22:47.657Z,25.75
2023-05-21T06:25:14.575Z,25.13
2023-05-21T06:27:41.234Z,24.05
2023-05-21T06:30:15.639Z,24.45
2023-05-21T06:32:43.248Z,23.92
2023-05-21T06:35:09.897Z,23.15
2023-05-21T06:37:36.424Z,23.33
2023-05-21T06:40:03.368Z,22.27
2023-05-21T06:42:31.264Z,21.95
2023-05-21T06:45:23.549Z,21.38
2023-05-21T06:47:53.369Z,20.52
2023-05-21T06:50:20.224Z,20.75
2023-05-21T06:52:47.040Z,20.70
2023-05-21T06:55:14.063Z,21.63
2023-05-21T06:57:59.039Z,20.77
2023-05-21T07:00:25.924Z,20.10
2023-05-21T07:02:53.170Z,19.80
2023-05-21T07:05:20.169Z,19.52
2023-05-21T07:07:46.657Z,19.20
2023-05-21T07:10:13.201Z,20.38
2023-05-21T07:12:40.807Z,18.63
2023-05-21T07:15:07.931Z,18.27
2023-05-21T07:17:34.557Z,18.88
2023-05-21T07:20:01.317Z,19.80
2023-05-21T07:22:28.577Z,19.33
2023-05-21T07:24:55.198Z,19.08
2023-05-21T07:27:25.681Z,18.58
2023-05-21T07:29:54.424Z,18.58
2023-05-21T07:32:21.623Z,18.63
2023-05-21T07:34:49.127Z,17.45
2023-05-21T07:37:16.032Z,18.27
2023-05-21T07:39:42.679Z,17.55
2023-05-21T07:42:10.995Z,16.52
2023-05-21T07:44:37.722Z,17.23
2023-05-21T07:47:04.597Z,17.65
2023-05-21T07:49:31.159Z,17.67
2023-05-21T07:51:58.054Z,17.25
2023-05-21T07:54:25.024Z,15.93
2023-05-21T07:56:52.379Z,16.20
2023-05-21T07:59:42.328Z,16.83
2023-05-21T08:02:08.926Z,15.43
2023-05-21T08:04:37.441Z,16.48
2023-05-21T08:07:05.975Z,15.80
2023-05-21T08:09:32.600Z,17.63
2023-05-21T08:11:59.412Z,16.67
2023-05-21T08:14:26.035Z,15.70
2023-05-21T08:16:53.250Z,16.98
2023-05-21T08:19:20.448Z,16.80
2023-05-21T08:21:47.748Z,16.42
2023-05-21T08:24:14.634Z,17.20
2023-05-21T08:26:41.340Z,16.75
2023-05-21T08:29:07.844Z,16.80
2023-05-21T08:31:34.398Z,17.38
2023-05-21T08:34:01.104Z,17.10
2023-05-21T08:36:38.242Z,16.48
2023-05-21T08:39:15.204Z,16.35
2023-05-21T08:41:49.397Z,16.45
2023-05-21T08:44:21.028Z,15.80
2023-05-21T08:46:49.810Z,17.55
2023-05-21T08:49:17.528Z,16.75
2023-05-21T08:51:45.709Z,15.13
2023-05-21T08:54:13.962Z,16.70
2023-05-21T08:56:45.737Z,16.88
2023-05-21T08:59:12.919Z,16.15
2023-05-21T09:01:42.381Z,15.68
2023-05-21T09:04:21.610Z,15.75
2023-05-21T09:09:34.150Z,14.73
2023-05-21T09:12:01.099Z,15.55
2023-05-21T09:14:28.461Z,15.32
2023-05-21T09:17:27.343Z,16.10
2023-05-21T09:20:13.221Z,15.13
2023-05-21T09:22:48.574Z,14.55
2023-05-21T09:25:16.916Z,14.32
2023-05-21T09:27:44.035Z,14.73
2023-05-21T09:30:12.902Z,14.32
2023-05-21T09:32:40.630Z,15.23
2023-05-21T09:35:09.943Z,15.15
2023-05-21T09:37:40.613Z,14.30
2023-05-21T09:40:12.191Z,13.63
2023-05-21T09:42:43.319Z,13.77
2023-05-21T09:45:11.356Z,14.98
2023-05-21T09:47:42.680Z,13.88
2023-05-21T09:50:11.664Z,13.02
2023-05-21T09:52:41.363Z,15.10
2023-05-21T09:55:13.099Z,15.77
2023-05-21T09:57:49.110Z,14.25
2023-05-21T10:00:24.158Z,13.73
2023-05-21T10:02:54.833Z,13.35
2023-05-21T10:05:26.254Z,13.45
2023-05-21T10:07:54.396Z,14.30
2023-05-21T10:10:24.460Z,14.55
2023-05-21T10:13:11.240Z,13.70
2023-05-21T10:15:47.350Z,13.63
2023-05-21T10:18:15.038Z,13.15
2023-05-21T10:20:42.607Z,12.57
2023-05-21T10:23:09.543Z,12.77
2023-05-21T10:25:36.331Z,13.38
2023-05-21T10:28:03.143Z,13.48
2023-05-21T10:30:30.059Z,12.68
2023-05-21T10:32:57.334Z,11.50
2023-05-21T10:35:24.469Z,13.15
2023-05-21T10:37:51.980Z,12.05
2023-05-21T10:40:18.453Z,12.52
2023-05-21T10:43:14.293Z,11.82
2023-05-21T10:45:55.943Z,11.23
2023-05-21T10:48:35.838Z,11.60
2023-05-21T10:51:15.191Z,11.75
2023-05-21T10:53:59.273Z,10.27
2023-05-21T10:56:33.010Z,10.10
2023-05-21T10:59:25.736Z,8.60
2023-05-21T11:01:53.277Z,8.55
2023-05-21T11:04:26.057Z,9.02
2023-05-21T11:06:52.591Z,8.47
2023-05-21T11:09:20.004Z,9.38
2023-05-21T11:11:50.840Z,9.48
2023-05-21T11:14:27.413Z,9.13
2023-05-21T11:16:54.827Z,10.15
2023-05-21T11:19:21.385Z,9.25
2023-05-21T11:21:53.697Z,10.25
2023-05-21T11:24:20.562Z,9.45
2023-05-21T11:26:52.713Z,9.40
2023-05-21T11:29:19.958Z,9.43
2023-05-21T11:31:48.079Z,9.18
2023-05-21T11:34:16.175Z,9.43
2023-05-21T11:36:49.699Z,9.13
2023-05-21T11:39:22.237Z,9.75
2023-05-21T11:41:59.805Z,9.73
2023-05-21T11:44:47.985Z,8.98
2023-05-21T11:47:16.134Z,9.70
2023-05-21T11:49:42.900Z,9.23
2023-05-21T11:52:10.550Z,9.23
2023-05-21T11:54:43.908Z,9.10
2023-05-21T11:59:37.057Z,9.93
2023-05-21T12:02:04.158Z,9.52
2023-05-21T12:04:31.360Z,9.40
2023-05-21T12:07:00.427Z,8.57
2023-05-21T12:09:26.950Z,9.18
2023-05-21T12:11:53.514Z,8.68
2023-05-21T12:14:21.547Z,8.88
2023-05-21T12:16:48.209Z,9.75
2023-05-21T12:19:17.750Z,9.20
2023-05-21T12:21:44.366Z,9.38
2023-05-21T12:24:10.930Z,9.38
2023-05-21T12:26:37.496Z,10.00
2023-05-21T12:29:04.676Z,9.32
2023-05-21T12:31:32.666Z,8.82
2023-05-21T12:33:59.612Z,9.02
2023-05-21T12:36:27.484Z,9.38
2023-05-21T12:38:54.463Z,8.80
2023-05-21T12:41:22.100Z,8.88
2023-05-21T12:43:48.930Z,9.75
2023-05-21T12:46:17.611Z,9.32
2023-05-21T12:48:53.180Z,8.77
2023-05-21T12:51:20.248Z,8.95
2023-05-21T12:53:47.142Z,9.05
2023-05-21T12:56:15.360Z,9.10
2023-05-21T12:58:43.494Z,8.43
2023-05-21T13:01:11.396Z,8.93
2023-05-21T13:03:38.871Z,8.70
2023-05-21T13:06:08.988Z,8.10
2023-05-21T13:08:35.701Z,8.68
2023-05-21T13:11:03.072Z,8.60
2023-05-21T13:13:30.064Z,8.90
2023-05-21T13:15:56.811Z,8.80
2023-05-21T13:18:23.390Z,8.73
2023-05-21T13:20:51.609Z,8.20
2023-05-21T13:23:18.169Z,8.82
2023-05-21T13:25:44.814Z,9.05
2023-05-21T13:28:15.011Z,8.70
2023-05-21T13:30:41.630Z,8.57
2023-05-21T13:33:08.254Z,8.50
2023-05-21T13:35:35.280Z,8.02
2023-05-21T13:38:02.074Z,8.07
2023-05-21T13:40:28.626Z,8.95
2023-05-21T13:42:55.099Z,8.60
2023-05-21T13:45:21.652Z,8.73
2023-05-21T13:47:48.288Z,8.43
2023-05-21T13:50:15.725Z,7.90
2023-05-21T13:52:42.315Z,8.13
2023-05-21T13:55:09.482Z,8.00
2023-05-21T13:57:35.988Z,8.02
2023-05-21T14:00:03.458Z,8.10
2023-05-21T14:02:34.558Z,8.63
2023-05-21T14:05:01.285Z,8.57
2023-05-21T14:07:27.805Z,8.50
2023-05-21T14:09:54.355Z,9.23
2023-05-21T14:12:21.712Z,9.00
2023-05-21T14:14:49.773Z,9.05
2023-05-21T14:17:16.459Z,9.15
2023-05-21T14:19:43.034Z,8.65
2023-05-21T14:22:09.571Z,9.13
2023-05-21T14:24:36.357Z,9.63
2023-05-21T14:27:02.951Z,8.43
2023-05-21T14:29:29.471Z,9.45
2023-05-21T14:31:56.079Z,8.55
2023-05-21T14:34:22.637Z,9.15
2023-05-21T14:36:49.154Z,9.00
2023-05-21T14:39:15.721Z,8.90
2023-05-21T14:41:42.625Z,7.97
2023-05-21T14:44:09.136Z,9.38
2023-05-21T14:46:36.760Z,9.38
2023-05-21T14:49:03.784Z,8.82
2023-05-21T14:51:31.470Z,8.30
2023-05-21T14:53:58.179Z,8.68
2023-05-21T14:56:27.328Z,8.20
2023-05-21T14:58:54.013Z,8.15
2023-05-21T15:01:20.584Z,8.30
2023-05-21T15:03:47.253Z,8.60
2023-05-21T15:06:13.796Z,8.63
2023-05-21T15:08:40.319Z,8.73
2023-05-21T15:11:09.777Z,8.85
2023-05-21T15:13:36.263Z,8.88
2023-05-21T15:16:02.797Z,8.80
2023-05-21T15:18:29.684Z,9.73
2023-05-21T15:20:56.289Z,9.50
2023-05-21T15:23:22.808Z,9.70
2023-05-21T15:25:49.307Z,9.68
2023-05-21T15:28:15.856Z,10.23
2023-05-21T15:30:42.405Z,10.00
2023-05-21T15:33:08.884Z,9.65
2023-05-21T15:35:36.194Z,9.85
2023-05-21T15:38:03.222Z,10.48
2023-05-21T15:40:29.760Z,9.32
2023-05-21T15:42:56.248Z,9.98
2023-05-21T15:45:22.807Z,9.85
2023-05-21T15:47:49.301Z,9.55
2023-05-21T15:50:16.056Z,9.50
2023-05-21T15:52:42.770Z,9.13
2023-05-21T15:55:09.628Z,8.75
2023-05-21T15:57:36.167Z,8.95
2023-05-21T16:00:02.918Z,8.00
2023-05-21T16:02:35.247Z,8.10
2023-05-21T16:05:01.913Z,8.25
2023-05-21T16:07:28.451Z,7.95
2023-05-21T16:09:54.966Z,8.23
2023-05-21T16:12:21.530Z,8.15
2023-05-21T16:14:51.619Z,8.30
2023-05-21T16:17:19.757Z,8.13
2023-05-21T16:19:47.296Z,8.32
2023-05-21T16:22:14.038Z,7.93
2023-05-21T16:24:40.627Z,8.20
2023-05-21T16:27:07.193Z,8.57
2023-05-21T16:29:33.688Z,8.70
2023-05-21T16:32:00.357Z,7.90
2023-05-21T16:34:26.871Z,8.32
2023-05-21T16:36:53.364Z,8.50
2023-05-21T16:39:19.890Z,8.45
2023-05-21T16:41:46.428Z,8.75
2023-05-21T16:44:13.004Z,9.23
2023-05-21T16:46:39.561Z,8.40
2023-05-21T16:49:06.130Z,8.90
2023-05-21T16:51:32.657Z,8.70
2023-05-21T16:53:59.169Z,8.93
2023-05-21T16:56:27.527Z,9.23
2023-05-21T16:58:54.076Z,8.20
2023-05-21T17:01:20.703Z,8.07
2023-05-21T17:03:47.288Z,8.43
2023-05-21T17:06:14.864Z,8.85
2023-05-21T17:08:42.398Z,8.50
2023-05-21T17:11:09.056Z,8.23
2023-05-21T17:13:35.556Z,8.57
2023-05-21T17:16:02.116Z,8.45
2023-05-21T17:18:28.637Z,8.27
2023-05-21T17:20:56.071Z,7.90
2023-05-21T17:23:22.717Z,7.93
2023-05-21T17:25:49.266Z,8.50
2023-05-21T17:28:15.785Z,8.50
2023-05-21T17:30:42.929Z,8.00
2023-05-21T17:33:10.384Z,8.40
2023-05-21T17:35:37.428Z,8.48
2023-05-21T17:38:04.214Z,8.05
2023-05-21T17:40:30.716Z,8.45
2023-05-21T17:42:57.290Z,8.45
2023-05-21T17:45:23.788Z,8.68
2023-05-21T17:47:50.378Z,8.68
2023-05-21T17:50:16.910Z,7.78
2023-05-21T17:52:43.417Z,8.10
2023-05-21T17:55:10.804Z,9.00
2023-05-21T17:57:37.299Z,8.15
2023-05-21T18:00:05.133Z,8.25
2023-05-21T18:02:38.490Z,8.85
2023-05-21T18:05:05.380Z,8.90
2023-05-21T18:07:32.095Z,9.20
2023-05-21T18:09:58.627Z,9.27
2023-05-21T18:12:25.314Z,9.63
2023-05-21T18:14:51.912Z,8.77
2023-05-21T18:17:18.421Z,9.52
2023-05-21T18:19:44.930Z,9.18
2023-05-21T18:22:11.490Z,9.45
2023-05-21T18:24:38.331Z,9.27
2023-05-21T18:27:04.972Z,9.68
2023-05-21T18:29:31.668Z,9.43
2023-05-21T18:31:58.229Z,8.55
2023-05-21T18:34:24.843Z,8.50
2023-05-21T18:36:51.332Z,8.82
2023-05-21T18:39:17.912Z,8.77
2023-05-21T18:41:44.481Z,8.65
2023-05-21T18:44:10.999Z,8.43
2023-05-21T18:46:37.848Z,8.57
2023-05-21T18:49:05.042Z,8.30
2023-05-21T18:51:31.793Z,8.85
2023-05-21T18:53:58.723Z,8.20
2023-05-21T18:56:25.881Z,8.23
2023-05-21T18:58:52.474Z,8.30
2023-05-21T19:01:19.032Z,8.43
2023-05-21T19:03:45.631Z,8.50
2023-05-21T19:06:12.205Z,8.90
2023-05-21T19:08:40.452Z,8.90
2023-05-21T19:11:07.408Z,8.77
2023-05-21T19:13:34.241Z,8.90
2023-05-21T19:16:01.962Z,8.80
2023-05-21T19:18:31.852Z,9.57
2023-05-21T19:21:00.236Z,8.90
2023-05-21T19:23:26.803Z,8.65
2023-05-21T19:25:53.270Z,8.48
2023-05-21T19:28:19.859Z,9.50
2023-05-21T19:30:46.500Z,8.95
2023-05-21T19:33:14.155Z,9.02
2023-05-21T19:35:41.949Z,9.13
2023-05-21T19:38:11.531Z,9.15
2023-05-21T19:40:38.624Z,9.25
2023-05-21T19:43:05.416Z,9.75
2023-05-21T19:45:31.981Z,8.95
2023-05-21T19:47:59.780Z,8.68
2023-05-21T19:50:28.611Z,8.93
2023-05-21T19:52:57.108Z,8.82
2023-05-21T19:55:24.894Z,9.05
2023-05-21T19:57:51.605Z,9.60
2023-05-21T20:00:18.891Z,9.40
2023-05-21T20:02:46.444Z,9.63
2023-05-21T20:05:13.191Z,9.43
2023-05-21T20:07:39.766Z,10.80
2023-05-21T20:10:07.351Z,10.20
2023-05-21T20:12:34.411Z,9.80
2023-05-21T20:15:04.688Z,10.70
2023-05-21T20:17:33.855Z,9.85
2023-05-21T20:20:01.369Z,9.80
2023-05-21T20:22:28.254Z,10.30
2023-05-21T20:24:55.786Z,9.98
2023-05-21T20:27:22.312Z,10.82
2023-05-21T20:29:49.222Z,10.30
2023-05-21T20:32:15.821Z,10.55
2023-05-21T20:34:50.726Z,10.38
2023-05-21T20:37:29.713Z,10.85
2023-05-21T20:39:57.821Z,10.65
2023-05-21T20:42:28.318Z,10.95
2023-05-21T20:44:55.176Z,11.02
2023-05-21T20:47:23.360Z,10.75
2023-05-21T20:49:53.652Z,11.68
2023-05-21T20:52:20.601Z,10.30
2023-05-21T20:54:47.097Z,11.45
2023-05-21T20:57:14.037Z,11.43
2023-05-21T20:59:40.509Z,11.50
2023-05-21T21:02:10.441Z,10.90
2023-05-21T21:04:37.917Z,12.02
2023-05-21T21:07:07.843Z,12.00
2023-05-21T21:09:34.387Z,11.43
2023-05-21T21:12:06.153Z,12.20
2023-05-21T21:14:37.998Z,11.98
2023-05-21T21:17:04.648Z,11.57
2023-05-21T21:19:31.268Z,11.48
2023-05-21T21:21:57.988Z,11.63
2023-05-21T21:24:24.500Z,12.40
2023-05-21T21:26:51.020Z,11.70
2023-05-21T21:29:17.564Z,12.25
2023-05-21T21:31:44.636Z,12.35
2023-05-21T21:34:11.212Z,12.70
2023-05-21T21:36:37.771Z,12.40
2023-05-21T21:39:04.297Z,12.07
2023-05-21T21:41:30.832Z,12.45
2023-05-21T21:43:57.543Z,13.18
2023-05-21T21:46:24.778Z,13.70
2023-05-21T21:48:51.345Z,13.48
2023-05-21T21:51:17.899Z,13.23
2023-05-21T21:53:44.448Z,13.77
2023-05-21T21:56:11.038Z,12.65
2023-05-21T21:58:37.629Z,12.02
2023-05-21T22:01:04.165Z,12.60
2023-05-21T22:03:34.381Z,12.55
2023-05-21T22:06:01.147Z,12.32
2023-05-21T22:08:28.692Z,12.40
2023-05-21T22:10:56.167Z,12.00
2023-05-21T22:13:22.734Z,11.93
2023-05-21T22:15:49.779Z,11.95
2023-05-21T22:18:28.317Z,12.20
2023-05-21T22:20:59.696Z,12.15
2023-05-21T22:23:26.258Z,11.93
2023-05-21T22:25:52.759Z,13.05
2023-05-21T22:28:22.296Z,12.60
2023-05-21T22:30:48.819Z,12.32
2023-05-21T22:33:15.964Z,12.43
2023-05-21T22:35:42.592Z,11.73
2023-05-21T22:38:09.080Z,12.40
2023-05-21T22:40:36.022Z,12.10
2023-05-21T22:43:03.052Z,11.75
2023-05-21T22:45:29.677Z,12.75
2023-05-21T22:47:56.678Z,12.85
2023-05-21T22:50:25.187Z,12.65
2023-05-21T22:52:51.737Z,11.88
2023-05-21T22:55:18.220Z,12.13
2023-05-21T22:57:44.717Z,12.02
2023-05-21T23:00:11.634Z,13.07
2023-05-21T23:02:38.271Z,12.55
2023-05-21T23:05:05.516Z,12.75
2023-05-21T23:07:32.125Z,12.88
2023-05-21T23:09:58.620Z,13.10
2023-05-21T23:12:25.157Z,13.52
2023-05-21T23:14:51.648Z,13.38
2023-05-21T23:17:18.177Z,13.60
2023-05-21T23:19:44.644Z,12.80
2023-05-21T23:22:11.225Z,12.95
2023-05-21T23:24:38.907Z,13.15
2023-05-21T23:27:05.474Z,12.10
2023-05-21T23:29:31.961Z,12.48
2023-05-21T23:32:00.799Z,13.25
2023-05-21T23:34:27.609Z,12.93
2023-05-21T23:36:54.177Z,13.18
2023-05-21T23:39:21.095Z,13.15
2023-05-21T23:41:47.944Z,13.13
2023-05-21T23:44:15.405Z,13.50
2023-05-21T23:46:45.163Z,12.90
2023-05-21T23:49:11.699Z,14.80
2023-05-21T23:51:38.823Z,13.98
2023-05-21T23:54:05.641Z,13.30
2023-05-21T23:56:32.166Z,13.98
2023-05-21T23:58:58.779Z,13.20
